Terminal Aerodrome Forecast
Issued by NWS

Home | Current Version | Previous Version | Text Only | Print | Product List | Glossary Off
Versions: 1 2 3 4 5 6 7 8 9 10 11 12 13 14 15 16 17

000
FTUS43 KICT 221120
TAFSLN
TAF
KSLN 221120Z 2212/2312 21012KT P6SM BKN250
     FM221400 24013G18KT P6SM BKN250
     FM221700 32014G20KT P6SM SCT250
     FM230000 34006KT P6SM SCT250
     FM230400 07006KT P6SM SCT150 BKN250=

USA.gov is the U.S. government's official web portal to all federal, state and local government web resources and services.